createdAt,value
2022-10-06T00:00:15.208Z,99535.66
2022-10-06T00:05:17.885Z,99503.88
2022-10-06T00:10:20.490Z,99528.75
2022-10-06T00:15:29.379Z,99513.28
2022-10-06T00:20:33.186Z,99514.16
2022-10-06T00:25:36.294Z,99532.22
2022-10-06T00:30:39.029Z,99529.66
2022-10-06T00:35:42.278Z,99539.13
2022-10-06T00:40:50.388Z,99540.81
2022-10-06T00:45:53.224Z,99526.19
2022-10-06T00:50:58.405Z,99530.47
2022-10-06T00:56:01.013Z,99525.25
2022-10-06T01:01:04.287Z,99524.38
2022-10-06T01:06:07.736Z,99533.00
2022-10-06T01:11:15.692Z,99539.09
2022-10-06T01:16:27.012Z,99536.53
2022-10-06T01:21:44.898Z,99534.81
2022-10-06T01:26:51.948Z,99537.34
2022-10-06T01:31:55.634Z,99528.66
2022-10-06T01:36:58.321Z,99524.38
2022-10-06T01:42:02.424Z,99527.00
2022-10-06T01:47:06.891Z,99515.00
2022-10-06T01:52:09.719Z,99516.75
2022-10-06T01:57:12.337Z,99539.09
2022-10-06T02:02:15.036Z,99535.66
2022-10-06T02:07:17.752Z,99533.91
2022-10-06T02:12:22.024Z,99515.03
2022-10-06T02:17:24.999Z,99492.72
2022-10-06T02:22:28.413Z,99515.91
2022-10-06T02:27:31.124Z,99522.75
2022-10-06T02:32:37.390Z,99538.22
2022-10-06T02:37:41.676Z,99525.34
2022-10-06T02:42:46.990Z,99541.72
2022-10-06T02:47:56.882Z,99545.13
2022-10-06T02:52:59.457Z,99553.72
2022-10-06T02:58:03.724Z,99550.31
2022-10-06T03:03:06.441Z,99546.81
2022-10-06T03:08:10.824Z,99551.19
2022-10-06T03:13:13.622Z,99546.88
2022-10-06T03:18:16.247Z,99551.03
2022-10-06T03:23:19.314Z,99552.66
2022-10-06T03:28:22.959Z,99552.59
2022-10-06T03:33:25.792Z,99549.13
2022-10-06T03:38:31.416Z,99541.31
2022-10-06T03:43:35.831Z,99548.19
2022-10-06T03:48:38.927Z,99555.13
2022-10-06T03:53:47.332Z,99553.38
2022-10-06T03:59:00.276Z,99549.06
2022-10-06T04:04:05.145Z,99548.28
2022-10-06T04:09:15.374Z,99545.59
2022-10-06T04:14:19.002Z,99530.28
2022-10-06T04:19:22.208Z,99550.81
2022-10-06T04:24:28.060Z,99553.31
2022-10-06T04:29:32.810Z,99554.91
2022-10-06T04:34:35.597Z,99560.91
2022-10-06T04:39:39.069Z,99566.91
2022-10-06T04:44:42.809Z,99570.44
2022-10-06T04:49:45.718Z,99573.06
2022-10-06T04:54:49.203Z,99560.81
2022-10-06T05:00:14.784Z,99578.84
2022-10-06T05:05:20.100Z,99562.72
2022-10-06T05:10:23.916Z,99581.50
2022-10-06T05:15:28.288Z,99564.41
2022-10-06T05:20:31.288Z,99575.41
2022-10-06T05:25:34.404Z,99578.63
2022-10-06T05:30:37.840Z,99583.69
2022-10-06T05:35:51.733Z,99581.25
2022-10-06T05:41:06.773Z,99584.69
2022-10-06T05:46:23.863Z,99567.47
2022-10-06T05:51:31.439Z,99586.13
2022-10-06T05:56:38.385Z,99587.47
2022-10-06T06:01:43.096Z,99584.59
2022-10-06T06:06:58.524Z,99562.22
2022-10-06T06:12:02.786Z,99580.28
2022-10-06T06:17:14.030Z,99571.50
2022-10-06T06:22:16.822Z,99586.38
2022-10-06T06:27:21.597Z,99596.16
2022-10-06T06:32:25.109Z,99593.41
2022-10-06T06:37:31.477Z,99581.22
2022-10-06T06:42:35.305Z,99567.81
2022-10-06T06:48:02.507Z,99581.69
2022-10-06T06:53:07.141Z,99566.84
2022-10-06T06:58:12.774Z,99559.69
2022-10-06T07:03:38.459Z,99579.31
2022-10-06T07:08:43.650Z,99558.97
2022-10-06T07:13:50.791Z,99561.19
2022-10-06T07:19:12.385Z,99576.88
2022-10-06T07:24:34.385Z,99574.22
2022-10-06T07:29:37.230Z,99567.38
2022-10-06T07:39:49.780Z,99573.75
2022-10-06T07:45:11.606Z,99581.38
2022-10-06T07:50:16.193Z,99570.13
2022-10-06T07:55:19.167Z,99577.22
2022-10-06T08:00:53.107Z,99563.13
2022-10-06T08:06:00.665Z,99531.59
2022-10-06T08:11:04.927Z,99568.28
2022-10-06T08:16:19.836Z,99556.25
2022-10-06T08:21:35.694Z,99546.44
2022-10-06T08:26:38.976Z,99552.13
2022-10-06T08:31:42.225Z,99509.59
2022-10-06T08:37:08.649Z,99557.53
2022-10-06T08:42:50.605Z,99557.72
2022-10-06T08:48:21.237Z,99564.34
2022-10-06T08:53:23.871Z,99582.53
2022-10-06T08:58:58.745Z,99574.66
2022-10-06T09:04:05.376Z,99580.59
2022-10-06T09:09:35.783Z,99582.38
2022-10-06T09:14:44.538Z,99573.69
2022-10-06T09:20:02.320Z,99564.06
2022-10-06T09:25:17.836Z,99539.75
2022-10-06T09:30:20.550Z,99564.16
2022-10-06T09:35:25.822Z,99566.66
2022-10-06T09:40:53.820Z,99556.16
2022-10-06T09:46:17.836Z,99549.88
2022-10-06T09:51:20.459Z,99549.31
2022-10-06T09:56:23.242Z,99549.22
2022-10-06T10:01:28.754Z,99541.13
2022-10-06T10:06:35.138Z,99521.56
2022-10-06T10:11:56.878Z,99509.44
2022-10-06T10:17:07.674Z,99529.78
2022-10-06T10:22:23.414Z,99530.66
2022-10-06T10:28:04.014Z,99541.69
2022-10-06T10:33:16.955Z,99548.16
2022-10-06T10:38:25.084Z,99546.66
2022-10-06T10:43:35.348Z,99554.53
2022-10-06T10:49:07.276Z,99549.13
2022-10-06T10:54:14.027Z,99554.53
2022-10-06T10:59:30.463Z,99551.72
2022-10-06T11:04:33.233Z,99533.97
2022-10-06T11:09:51.953Z,99546.38
2022-10-06T11:15:20.355Z,99553.41
2022-10-06T11:20:47.217Z,99536.97
2022-10-06T11:26:09.944Z,99561.88
2022-10-06T11:31:21.789Z,99548.00
2022-10-06T11:36:47.173Z,99549.41
2022-10-06T11:41:58.527Z,99539.19
2022-10-06T11:47:09.605Z,99529.38
2022-10-06T11:52:12.141Z,99534.16
2022-10-06T11:57:27.975Z,99521.06
2022-10-06T12:02:33.375Z,99531.13
2022-10-06T12:07:54.696Z,99536.84
2022-10-06T12:14:26.270Z,99536.56
2022-10-06T12:19:02.780Z,99531.97
2022-10-06T12:24:45.728Z,99522.94
2022-10-06T12:29:59.920Z,99520.78
2022-10-06T12:35:16.441Z,99523.56
2022-10-06T12:40:44.435Z,99521.88
2022-10-06T12:45:47.036Z,99507.94
2022-10-06T12:50:55.705Z,99499.28
2022-10-06T12:56:03.691Z,99515.91
2022-10-06T13:01:11.918Z,99527.53
2022-10-06T13:06:15.267Z,99527.22
2022-10-06T13:11:27.390Z,99531.44
2022-10-06T13:16:33.548Z,99524.63
2022-10-06T13:21:36.209Z,99462.75
2022-10-06T13:26:40.352Z,99505.94
2022-10-06T13:31:51.868Z,99497.81
2022-10-06T13:36:56.848Z,99508.94
2022-10-06T13:42:03.754Z,99515.78
2022-10-06T13:47:18.628Z,99504.78
2022-10-06T13:52:38.326Z,99521.63
2022-10-06T13:57:49.315Z,99512.28
2022-10-06T14:02:56.286Z,99498.75
2022-10-06T14:08:02.765Z,99512.44
2022-10-06T14:13:15.867Z,99517.28
2022-10-06T14:18:26.333Z,99516.28
2022-10-06T14:23:40.220Z,99508.50
2022-10-06T14:28:48.905Z,99503.44
2022-10-06T14:33:53.261Z,99506.97
2022-10-06T14:38:57.286Z,99516.38
2022-10-06T14:44:03.012Z,99527.63
2022-10-06T14:49:11.318Z,99525.94
2022-10-06T14:54:14.825Z,99525.16
2022-10-06T14:59:18.259Z,99516.59
2022-10-06T15:04:26.576Z,99523.47
2022-10-06T15:09:31.304Z,99521.75
2022-10-06T15:14:40.145Z,99498.44
2022-10-06T15:19:42.744Z,99506.13
2022-10-06T15:24:48.837Z,99505.34
2022-10-06T15:29:51.490Z,99505.94
2022-10-06T15:34:55.304Z,99521.72
2022-10-06T15:39:58.404Z,99517.63
2022-10-06T15:45:06.570Z,99495.16
2022-10-06T15:50:11.368Z,99513.25
2022-10-06T15:55:15.629Z,99499.50
2022-10-06T16:00:18.418Z,99511.78
2022-10-06T16:05:43.749Z,99509.25
2022-10-06T16:10:50.081Z,99514.31
2022-10-06T16:15:54.120Z,99487.03
2022-10-06T16:20:56.855Z,99496.28
2022-10-06T16:26:02.083Z,99499.53
2022-10-06T16:31:06.302Z,99501.34
2022-10-06T16:36:09.886Z,99504.81
2022-10-06T16:41:12.558Z,99497.94
2022-10-06T16:46:21.273Z,99498.75
2022-10-06T16:51:29.416Z,99503.16
2022-10-06T16:56:41.267Z,99502.47
2022-10-06T17:01:44.766Z,99502.31
2022-10-06T17:06:52.742Z,99498.97
2022-10-06T17:12:01.190Z,99490.19
2022-10-06T17:17:04.905Z,99482.59
2022-10-06T17:22:07.451Z,99477.34
2022-10-06T17:27:10.409Z,99452.72
2022-10-06T17:32:12.946Z,99453.91
2022-10-06T17:37:17.414Z,99469.81
2022-10-06T17:42:19.971Z,99459.53
2022-10-06T17:47:22.602Z,99456.00
2022-10-06T17:52:25.256Z,99458.78
2022-10-06T17:57:29.765Z,99446.78
2022-10-06T18:02:33.265Z,99443.56
2022-10-06T18:07:38.390Z,99443.13
2022-10-06T18:12:41.308Z,99434.72
2022-10-06T18:17:44.138Z,99419.28
2022-10-06T18:22:48.641Z,99427.06
2022-10-06T18:27:52.165Z,99404.88
2022-10-06T18:38:18.061Z,99420.41
2022-10-06T18:43:20.690Z,99430.78
2022-10-06T18:48:41.638Z,99414.38
2022-10-06T18:53:44.453Z,99410.16
2022-10-06T18:58:47.702Z,99398.03
2022-10-06T19:03:50.639Z,99417.13
2022-10-06T19:09:00.848Z,99398.50
2022-10-06T19:14:03.612Z,99422.56
2022-10-06T19:19:10.847Z,99413.75
2022-10-06T19:24:16.368Z,99411.28
2022-10-06T19:29:23.724Z,99424.06
2022-10-06T19:34:26.813Z,99421.41
2022-10-06T19:39:32.538Z,99422.09
2022-10-06T19:44:42.597Z,99419.56
2022-10-06T19:49:45.616Z,99405.81
2022-10-06T19:54:48.193Z,99410.84
2022-10-06T19:59:51.097Z,99405.63
2022-10-06T20:04:53.685Z,99406.38
2022-10-06T20:09:56.234Z,99408.84
2022-10-06T20:14:58.874Z,99395.00
2022-10-06T20:20:03.313Z,99395.00
2022-10-06T20:25:07.495Z,99385.75
2022-10-06T20:30:10.878Z,99400.19
2022-10-06T20:35:15.098Z,99397.66
2022-10-06T20:40:36.321Z,99403.53
2022-10-06T20:45:38.901Z,99414.00
2022-10-06T20:50:41.601Z,99412.25
2022-10-06T20:55:51.701Z,99413.03
2022-10-06T21:00:54.601Z,99407.72
2022-10-06T21:05:57.358Z,99407.50
2022-10-06T21:11:02.532Z,99410.06
2022-10-06T21:16:05.335Z,99419.25
2022-10-06T21:21:11.408Z,99415.13
2022-10-06T21:26:19.117Z,99421.06
2022-10-06T21:31:24.819Z,99427.19
2022-10-06T21:36:31.721Z,99417.78
2022-10-06T21:41:39.009Z,99406.81
2022-10-06T21:46:49.483Z,99424.03
2022-10-06T21:51:54.482Z,99433.78
2022-10-06T21:56:58.146Z,99435.34
2022-10-06T22:02:00.874Z,99424.97
2022-10-06T22:07:03.444Z,99423.03
2022-10-06T22:12:06.072Z,99436.97
2022-10-06T22:17:08.645Z,99435.09
2022-10-06T22:22:11.232Z,99438.72
2022-10-06T22:27:14.304Z,99447.25
2022-10-06T22:32:17.112Z,99455.03
2022-10-06T22:37:19.628Z,99442.94
2022-10-06T22:42:22.147Z,99454.06
2022-10-06T22:47:24.699Z,99462.56
2022-10-06T22:52:27.200Z,99469.50
2022-10-06T22:57:29.806Z,99452.31
2022-10-06T23:02:32.571Z,99466.09
2022-10-06T23:07:35.490Z,99468.50
2022-10-06T23:12:38.219Z,99453.00
2022-10-06T23:17:41.963Z,99465.94
2022-10-06T23:22:44.971Z,99477.94
2022-10-06T23:27:47.787Z,99460.91
2022-10-06T23:32:50.403Z,99478.28
2022-10-06T23:37:53.041Z,99478.75
2022-10-06T23:42:55.721Z,99498.63
2022-10-06T23:48:00.167Z,99514.16
2022-10-06T23:53:02.831Z,99508.06
2022-10-06T23:58:05.394Z,99503.22
